createdAt,value
2022-12-25T00:00:20.467Z,35.50
2022-12-25T00:02:48.833Z,31.83
2022-12-25T00:05:16.712Z,21.10
2022-12-25T00:07:44.565Z,33.50
2022-12-25T00:10:12.465Z,40.67
2022-12-25T00:12:40.324Z,13.23
2022-12-25T00:15:08.284Z,29.80
2022-12-25T00:17:36.029Z,48.37
2022-12-25T00:20:03.938Z,25.42
2022-12-25T00:22:31.717Z,35.67
2022-12-25T00:24:59.459Z,27.83
2022-12-25T00:27:27.178Z,29.80
2022-12-25T00:29:55.018Z,40.00
2022-12-25T00:32:22.812Z,23.55
2022-12-25T00:34:50.477Z,31.90
2022-12-25T00:37:18.206Z,25.17
2022-12-25T00:39:45.901Z,17.73
2022-12-25T00:42:19.578Z,20.90
2022-12-25T00:44:47.807Z,33.75
2022-12-25T00:47:15.942Z,26.35
2022-12-25T00:49:43.801Z,20.27
2022-12-25T00:52:11.658Z,19.08
2022-12-25T00:54:39.470Z,33.97
2022-12-25T00:57:07.281Z,21.90
2022-12-25T00:59:35.206Z,29.23
2022-12-25T01:02:29.481Z,21.08
2022-12-25T01:04:57.604Z,16.33
2022-12-25T01:07:25.898Z,15.67
2022-12-25T01:10:12.472Z,17.58
2022-12-25T01:12:41.588Z,8.85
2022-12-25T01:15:09.780Z,22.43
2022-12-25T01:17:37.629Z,20.77
2022-12-25T01:20:05.852Z,24.92
2022-12-25T01:22:33.647Z,27.27
2022-12-25T01:25:01.389Z,15.07
2022-12-25T01:27:29.115Z,11.45
2022-12-25T01:29:57.026Z,28.38
2022-12-25T01:32:24.734Z,29.47
2022-12-25T01:34:56.195Z,19.92
2022-12-25T01:37:27.010Z,17.95
2022-12-25T01:39:54.819Z,27.40
2022-12-25T01:42:23.894Z,19.88
2022-12-25T01:44:51.578Z,28.25
2022-12-25T01:47:19.407Z,27.25
2022-12-25T01:49:48.047Z,19.80
2022-12-25T01:52:23.323Z,56.88
2022-12-25T01:54:58.865Z,47.00
2022-12-25T01:57:27.935Z,56.10
2022-12-25T01:59:55.952Z,30.08
2022-12-25T02:02:23.836Z,45.47
2022-12-25T02:05:09.397Z,9.40
2022-12-25T02:07:37.294Z,19.50
2022-12-25T02:10:06.523Z,30.17
2022-12-25T02:12:34.752Z,36.72
2022-12-25T02:15:07.264Z,8.40
2022-12-25T02:17:47.931Z,32.72
2022-12-25T02:20:21.784Z,56.45
2022-12-25T02:23:09.870Z,37.00
2022-12-25T02:25:43.712Z,20.85
2022-12-25T02:28:22.376Z,25.40
2022-12-25T02:30:57.890Z,19.13
2022-12-25T02:33:46.366Z,27.23
2022-12-25T02:36:14.855Z,35.38
2022-12-25T02:39:01.676Z,19.25
2022-12-25T02:41:29.589Z,29.10
2022-12-25T02:44:16.019Z,34.25
2022-12-25T02:47:02.351Z,24.33
2022-12-25T02:49:48.765Z,33.67
2022-12-25T02:52:36.003Z,39.80
2022-12-25T02:55:48.440Z,16.83
2022-12-25T02:58:35.582Z,22.27
2022-12-25T03:01:22.768Z,35.80
2022-12-25T03:04:09.721Z,33.28
2022-12-25T03:06:43.381Z,18.48
2022-12-25T03:09:47.913Z,29.37
2022-12-25T03:12:34.196Z,32.45
2022-12-25T03:15:20.741Z,20.83
2022-12-25T03:17:48.533Z,27.27
2022-12-25T03:20:35.135Z,29.80
2022-12-25T03:23:21.613Z,28.20
2022-12-25T03:26:07.690Z,23.13
2022-12-25T03:28:35.661Z,34.20
2022-12-25T03:31:12.759Z,30.98
2022-12-25T03:34:11.168Z,25.40
2022-12-25T03:36:41.919Z,30.17
2022-12-25T03:39:35.350Z,30.88
2022-12-25T03:42:21.562Z,27.30
2022-12-25T03:45:14.624Z,13.40
2022-12-25T03:48:02.821Z,31.90
2022-12-25T03:50:52.399Z,21.42
2022-12-25T03:53:41.545Z,20.90
2022-12-25T03:56:28.350Z,22.83
2022-12-25T03:59:21.022Z,22.48
2022-12-25T04:02:09.715Z,20.15
2022-12-25T04:04:56.240Z,29.13
2022-12-25T04:07:42.887Z,15.10
2022-12-25T04:10:29.542Z,11.40
2022-12-25T04:13:15.791Z,15.83
2022-12-25T04:16:02.185Z,30.40
2022-12-25T04:18:48.876Z,30.95
2022-12-25T04:21:35.272Z,21.20
2022-12-25T04:24:21.930Z,32.38
2022-12-25T04:27:08.498Z,27.30
2022-12-25T04:29:54.666Z,27.80
2022-12-25T04:32:41.174Z,22.37
2022-12-25T04:35:27.666Z,29.67
2022-12-25T04:37:55.392Z,15.07
2022-12-25T04:40:23.172Z,13.77
2022-12-25T04:42:51.581Z,22.90
2022-12-25T04:45:19.472Z,22.13
2022-12-25T04:47:47.241Z,26.53
2022-12-25T04:50:15.097Z,14.32
2022-12-25T04:52:42.909Z,35.25
2022-12-25T04:55:11.096Z,17.58
2022-12-25T04:57:38.999Z,27.60
2022-12-25T05:00:07.190Z,20.38
2022-12-25T05:02:35.134Z,36.60
2022-12-25T05:05:03.087Z,44.10
2022-12-25T05:07:30.838Z,20.65
2022-12-25T05:09:58.613Z,20.02
2022-12-25T05:12:26.393Z,31.67
2022-12-25T05:14:54.091Z,27.15
2022-12-25T05:17:22.004Z,35.40
2022-12-25T05:19:49.712Z,25.15
2022-12-25T05:22:17.458Z,31.37
2022-12-25T05:24:45.256Z,21.73
2022-12-25T05:27:13.122Z,21.80
2022-12-25T05:29:40.866Z,27.67
2022-12-25T05:32:08.557Z,35.28
2022-12-25T05:34:36.352Z,23.67
2022-12-25T05:37:04.278Z,21.43
2022-12-25T05:39:32.033Z,20.05
2022-12-25T05:41:59.865Z,26.02
2022-12-25T05:44:27.675Z,17.75
2022-12-25T05:46:55.511Z,25.60
2022-12-25T05:49:23.248Z,30.63
2022-12-25T05:51:51.020Z,39.83
2022-12-25T05:54:18.786Z,32.13
2022-12-25T05:56:46.656Z,22.67
2022-12-25T05:59:14.412Z,28.02
2022-12-25T06:01:42.297Z,15.73
2022-12-25T06:04:12.732Z,26.27
2022-12-25T06:06:41.470Z,22.20
2022-12-25T06:09:09.810Z,26.65
2022-12-25T06:11:37.547Z,26.70
2022-12-25T06:14:05.379Z,26.05
2022-12-25T06:16:37.997Z,12.38
2022-12-25T06:19:07.833Z,24.27
2022-12-25T06:21:35.541Z,20.90
2022-12-25T06:24:03.450Z,17.13
2022-12-25T06:26:31.210Z,22.47
2022-12-25T06:28:59.002Z,16.42
2022-12-25T06:31:26.743Z,20.17
2022-12-25T06:33:54.498Z,25.13
2022-12-25T06:36:25.955Z,31.47
2022-12-25T06:38:53.878Z,28.92
2022-12-25T06:41:22.422Z,35.45
2022-12-25T06:43:50.691Z,30.57
2022-12-25T06:46:18.756Z,39.80
2022-12-25T06:48:50.042Z,37.45
2022-12-25T06:51:18.570Z,32.87
2022-12-25T06:53:46.392Z,17.30
2022-12-25T06:56:15.564Z,29.35
2022-12-25T06:58:44.335Z,25.33
2022-12-25T07:01:15.741Z,25.23
2022-12-25T07:03:44.016Z,26.63
2022-12-25T07:06:11.800Z,25.77
2022-12-25T07:08:39.736Z,30.77
2022-12-25T07:11:07.597Z,24.17
2022-12-25T07:13:35.397Z,19.35
2022-12-25T07:16:04.311Z,28.63
2022-12-25T07:18:32.214Z,22.48
2022-12-25T07:21:00.475Z,28.55
2022-12-25T07:23:28.351Z,29.73
2022-12-25T07:25:56.745Z,19.73
2022-12-25T07:28:24.512Z,19.77
2022-12-25T07:30:52.297Z,22.00
2022-12-25T07:33:20.020Z,41.30
2022-12-25T07:35:48.030Z,32.85
2022-12-25T07:38:15.734Z,28.30
2022-12-25T07:40:46.463Z,19.77
2022-12-25T07:43:14.203Z,25.95
2022-12-25T07:45:42.065Z,30.92
2022-12-25T07:48:16.297Z,36.53
2022-12-25T07:50:44.640Z,36.10
2022-12-25T07:53:12.300Z,28.00
2022-12-25T07:55:40.031Z,24.95
2022-12-25T07:58:08.401Z,30.93
2022-12-25T08:00:36.292Z,24.60
2022-12-25T08:03:04.698Z,20.92
2022-12-25T08:05:33.593Z,20.43
2022-12-25T08:08:01.411Z,34.10
2022-12-25T08:10:29.247Z,16.27
2022-12-25T08:12:57.393Z,15.93
2022-12-25T08:15:25.089Z,21.57
2022-12-25T08:17:52.827Z,23.60
2022-12-25T08:20:20.573Z,21.63
2022-12-25T08:22:48.373Z,18.53
2022-12-25T08:25:16.178Z,25.02
2022-12-25T08:27:44.017Z,30.45
2022-12-25T08:30:11.876Z,25.37
2022-12-25T08:32:39.726Z,24.10
2022-12-25T08:35:07.839Z,22.77
2022-12-25T08:37:36.754Z,20.65
2022-12-25T08:40:04.797Z,14.07
2022-12-25T08:42:32.674Z,19.00
2022-12-25T08:45:00.526Z,19.80
2022-12-25T08:47:28.968Z,18.40
2022-12-25T08:49:56.979Z,16.65
2022-12-25T08:52:24.850Z,28.65
2022-12-25T08:54:52.620Z,23.13
2022-12-25T08:57:20.439Z,27.63
2022-12-25T08:59:48.223Z,31.80
2022-12-25T09:02:16.288Z,17.77
2022-12-25T09:04:46.082Z,16.07
2022-12-25T09:07:13.882Z,18.73
2022-12-25T09:09:43.728Z,15.18
2022-12-25T09:12:11.594Z,8.63
2022-12-25T09:14:39.447Z,10.13
2022-12-25T09:17:07.178Z,15.20
2022-12-25T09:19:35.094Z,10.53
2022-12-25T09:22:03.324Z,13.13
2022-12-25T09:24:31.178Z,15.55
2022-12-25T09:26:58.919Z,17.42
2022-12-25T09:29:26.761Z,18.57
2022-12-25T09:31:54.512Z,17.02
2022-12-25T09:34:22.534Z,18.92
2022-12-25T09:36:50.321Z,22.27
2022-12-25T09:39:18.011Z,20.48
2022-12-25T09:41:56.700Z,14.07
2022-12-25T09:44:25.818Z,12.63
2022-12-25T09:47:06.716Z,11.00
2022-12-25T09:49:53.216Z,12.77
2022-12-25T09:52:21.623Z,13.20
2022-12-25T09:55:00.828Z,16.50
2022-12-25T09:57:28.635Z,9.23
2022-12-25T09:59:56.402Z,8.77
2022-12-25T10:02:37.780Z,17.00
2022-12-25T10:05:24.026Z,8.18
2022-12-25T10:07:57.871Z,13.63
2022-12-25T10:10:42.192Z,12.97
2022-12-25T10:13:22.159Z,16.00
2022-12-25T10:15:52.705Z,14.00
2022-12-25T10:18:35.618Z,13.65
2022-12-25T10:21:05.738Z,15.83
2022-12-25T10:23:41.627Z,6.50
2022-12-25T10:26:19.271Z,11.93
2022-12-25T10:28:48.413Z,7.20
2022-12-25T10:31:22.303Z,10.07
2022-12-25T10:33:50.591Z,11.43
2022-12-25T10:36:20.053Z,9.43
2022-12-25T10:38:48.129Z,8.80
2022-12-25T10:41:21.675Z,14.40
2022-12-25T10:43:49.430Z,6.20
2022-12-25T10:46:17.303Z,16.37
2022-12-25T10:48:51.679Z,11.85
2022-12-25T10:51:28.676Z,11.52
2022-12-25T10:53:56.346Z,8.43
2022-12-25T10:56:24.142Z,8.43
2022-12-25T10:58:51.910Z,13.73
2022-12-25T11:01:19.822Z,11.70
2022-12-25T11:03:48.475Z,6.05
2022-12-25T11:06:26.288Z,8.15
2022-12-25T11:08:55.185Z,8.40
2022-12-25T11:11:22.933Z,7.20
2022-12-25T11:13:54.282Z,12.50
2022-12-25T11:16:29.186Z,5.00
2022-12-25T11:18:57.237Z,9.77
2022-12-25T11:21:31.969Z,4.75
2022-12-25T11:24:00.940Z,8.68
2022-12-25T11:26:29.240Z,10.67
2022-12-25T11:28:57.003Z,9.63
2022-12-25T11:31:28.763Z,11.25
2022-12-25T11:34:01.685Z,5.85
2022-12-25T11:36:29.612Z,6.23
2022-12-25T11:38:58.210Z,7.82
2022-12-25T11:41:26.561Z,6.40
2022-12-25T11:43:55.168Z,7.20
2022-12-25T11:46:25.373Z,7.22
2022-12-25T11:48:57.208Z,7.30
2022-12-25T11:51:25.955Z,11.73
2022-12-25T11:53:54.622Z,9.57
2022-12-25T11:56:26.133Z,14.57
2022-12-25T11:58:54.330Z,6.30
2022-12-25T12:01:25.224Z,8.67
2022-12-25T12:03:53.040Z,8.13
2022-12-25T12:06:29.256Z,7.32
2022-12-25T12:09:06.533Z,10.63
2022-12-25T12:11:38.256Z,10.10
2022-12-25T12:14:06.307Z,7.03
2022-12-25T12:16:34.015Z,10.77
2022-12-25T12:19:11.343Z,15.13
2022-12-25T12:21:39.003Z,8.63
2022-12-25T12:24:07.829Z,9.77
2022-12-25T12:26:38.190Z,5.63
2022-12-25T12:29:06.967Z,4.72
2022-12-25T12:31:41.283Z,6.07
2022-12-25T12:34:15.548Z,9.40
2022-12-25T12:36:43.265Z,10.18
2022-12-25T12:39:18.735Z,8.63
2022-12-25T12:41:47.127Z,6.80
2022-12-25T12:44:15.174Z,11.10
2022-12-25T12:46:50.923Z,5.57
2022-12-25T12:49:19.135Z,8.32
2022-12-25T12:51:46.879Z,10.27
2022-12-25T12:54:28.087Z,6.63
2022-12-25T12:56:57.155Z,7.53
2022-12-25T12:59:25.400Z,4.60
2022-12-25T13:02:09.501Z,9.10
2022-12-25T13:04:41.712Z,4.25
2022-12-25T13:07:22.252Z,6.60
2022-12-25T13:10:10.135Z,6.47
2022-12-25T13:12:37.935Z,8.40
2022-12-25T13:15:05.785Z,6.60
2022-12-25T13:17:33.486Z,5.77
2022-12-25T13:20:01.148Z,6.65
2022-12-25T13:22:35.417Z,5.28
2022-12-25T13:25:05.210Z,6.47
2022-12-25T13:27:33.750Z,4.60
2022-12-25T13:30:01.552Z,4.97
2022-12-25T13:32:29.958Z,6.20
2022-12-25T13:34:57.736Z,7.57
2022-12-25T13:37:25.949Z,7.22
2022-12-25T13:39:56.757Z,7.85
2022-12-25T13:42:28.204Z,9.80
2022-12-25T13:44:57.973Z,7.97
2022-12-25T13:47:35.640Z,7.57
2022-12-25T13:50:14.664Z,10.37
2022-12-25T13:52:42.356Z,8.30
2022-12-25T13:55:12.444Z,5.30
2022-12-25T13:57:45.017Z,7.73
2022-12-25T14:00:20.831Z,6.57
2022-12-25T14:02:48.759Z,5.45
2022-12-25T14:05:25.775Z,4.97
2022-12-25T14:07:53.888Z,9.63
2022-12-25T14:10:22.324Z,7.80
2022-12-25T14:12:52.865Z,5.25
2022-12-25T14:15:22.122Z,7.50
2022-12-25T14:17:50.714Z,7.32
2022-12-25T14:20:30.730Z,8.07
2022-12-25T14:22:58.745Z,7.63
2022-12-25T14:25:29.833Z,6.63
2022-12-25T14:27:57.656Z,3.60
2022-12-25T14:30:25.884Z,7.65
2022-12-25T14:32:53.969Z,7.43
2022-12-25T14:35:23.844Z,5.60
2022-12-25T14:37:53.704Z,5.35
2022-12-25T14:40:31.659Z,4.33
2022-12-25T14:43:03.273Z,6.85
2022-12-25T14:45:32.116Z,8.80
2022-12-25T14:48:03.181Z,7.90
2022-12-25T14:50:32.791Z,7.50
2022-12-25T14:53:00.880Z,6.00
2022-12-25T14:55:29.129Z,7.20
2022-12-25T14:57:59.679Z,4.80
2022-12-25T15:00:31.907Z,5.68
2022-12-25T15:03:00.066Z,5.50
2022-12-25T15:05:29.433Z,9.63
2022-12-25T15:08:12.319Z,8.27
2022-12-25T15:13:28.355Z,5.67
2022-12-25T15:15:59.021Z,8.30
2022-12-25T15:18:27.388Z,7.70
2022-12-25T15:20:56.454Z,6.07
2022-12-25T15:23:25.495Z,9.43
2022-12-25T15:25:53.321Z,7.97
2022-12-25T15:28:21.081Z,5.57
2022-12-25T15:30:50.046Z,9.67
2022-12-25T15:33:18.344Z,10.35
2022-12-25T15:35:46.369Z,9.45
2022-12-25T15:38:14.264Z,10.60
2022-12-25T15:40:42.194Z,9.88
2022-12-25T15:43:38.833Z,7.35
2022-12-25T15:45:58.521Z,9.93
2022-12-25T15:48:26.312Z,9.93
2022-12-25T15:50:54.131Z,8.88
2022-12-25T15:53:21.918Z,8.23
2022-12-25T15:55:49.622Z,12.13
2022-12-25T15:58:17.416Z,12.82
2022-12-25T16:00:45.098Z,11.02
2022-12-25T16:03:13.146Z,13.57
2022-12-25T16:05:40.975Z,12.57
2022-12-25T16:08:09.483Z,11.80
2022-12-25T16:10:39.135Z,7.97
2022-12-25T16:13:08.136Z,14.63
2022-12-25T16:15:35.991Z,10.50
2022-12-25T16:18:03.934Z,12.65
2022-12-25T16:20:31.884Z,12.23
2022-12-25T16:22:59.672Z,10.10
2022-12-25T16:25:33.496Z,14.90
2022-12-25T16:28:03.724Z,14.03
2022-12-25T16:30:34.947Z,11.88
2022-12-25T16:33:02.660Z,13.95
2022-12-25T16:35:31.158Z,18.75
2022-12-25T16:37:58.946Z,12.47
2022-12-25T16:40:26.897Z,16.70
2022-12-25T16:42:55.982Z,11.45
2022-12-25T16:45:23.756Z,14.00
2022-12-25T16:47:51.503Z,19.65
2022-12-25T16:50:19.290Z,16.83
2022-12-25T16:52:47.042Z,14.27
2022-12-25T16:55:14.755Z,17.42
2022-12-25T16:57:42.607Z,16.77
2022-12-25T17:00:10.726Z,17.05
2022-12-25T17:02:38.556Z,17.40
2022-12-25T17:05:06.573Z,17.13
2022-12-25T17:07:34.289Z,18.85
2022-12-25T17:10:01.995Z,17.57
2022-12-25T17:12:29.788Z,18.30
2022-12-25T17:14:57.574Z,16.63
2022-12-25T17:17:25.295Z,16.67
2022-12-25T17:19:53.020Z,19.05
2022-12-25T17:22:20.673Z,21.90
2022-12-25T17:24:48.434Z,20.80
2022-12-25T17:27:16.094Z,23.20
2022-12-25T17:29:44.200Z,18.52
2022-12-25T17:32:12.169Z,21.33
2022-12-25T17:34:39.894Z,20.63
2022-12-25T17:37:07.646Z,19.65
2022-12-25T17:39:35.462Z,19.65
2022-12-25T17:42:03.216Z,17.30
2022-12-25T17:44:31.082Z,16.83
2022-12-25T17:46:58.899Z,17.60
2022-12-25T17:49:26.653Z,17.92
2022-12-25T17:51:54.588Z,19.57
2022-12-25T17:54:22.387Z,17.52
2022-12-25T17:56:50.562Z,18.92
2022-12-25T17:59:18.930Z,21.00
2022-12-25T18:01:48.252Z,19.60
2022-12-25T18:04:16.140Z,23.25
2022-12-25T18:06:43.954Z,24.90
2022-12-25T18:09:12.038Z,23.33
2022-12-25T18:11:40.660Z,20.45
2022-12-25T18:14:08.820Z,20.30
2022-12-25T18:16:37.148Z,19.17
2022-12-25T18:19:05.273Z,22.52
2022-12-25T18:21:32.980Z,20.00
2022-12-25T18:24:00.805Z,20.83
2022-12-25T18:26:29.047Z,21.13
2022-12-25T18:28:57.554Z,26.90
2022-12-25T18:31:26.158Z,21.47
2022-12-25T18:33:54.092Z,20.85
2022-12-25T18:36:22.788Z,19.63
2022-12-25T18:38:51.049Z,26.00
2022-12-25T18:41:18.923Z,22.08
2022-12-25T18:43:53.583Z,23.40
2022-12-25T18:46:26.349Z,21.52
2022-12-25T18:48:55.162Z,20.73
2022-12-25T18:51:22.977Z,23.77
2022-12-25T18:53:51.402Z,20.23
2022-12-25T18:56:19.387Z,25.45
2022-12-25T18:58:47.425Z,24.83
2022-12-25T19:01:20.853Z,24.93
2022-12-25T19:03:49.521Z,26.42
2022-12-25T19:06:20.753Z,22.92
2022-12-25T19:08:48.746Z,23.00
2022-12-25T19:11:16.877Z,22.35
2022-12-25T19:13:45.014Z,23.67
2022-12-25T19:16:16.040Z,19.53
2022-12-25T19:18:43.978Z,24.58
2022-12-25T19:21:11.879Z,22.40
2022-12-25T19:23:42.719Z,28.25
2022-12-25T19:26:10.691Z,26.20
2022-12-25T19:28:38.815Z,21.10
2022-12-25T19:31:08.518Z,21.65
2022-12-25T19:33:40.087Z,20.37
2022-12-25T19:36:09.149Z,19.98
2022-12-25T19:38:38.043Z,19.88
2022-12-25T19:41:07.305Z,18.27
2022-12-25T19:43:35.874Z,24.75
2022-12-25T19:46:03.772Z,22.02
2022-12-25T19:48:32.047Z,29.52
2022-12-25T19:50:59.742Z,21.13
2022-12-25T19:53:27.661Z,23.90
2022-12-25T19:55:55.635Z,21.88
2022-12-25T19:58:23.969Z,22.27
2022-12-25T20:00:58.597Z,23.08
2022-12-25T20:03:26.707Z,18.65
2022-12-25T20:05:54.581Z,20.17
2022-12-25T20:08:22.389Z,23.85
2022-12-25T20:10:50.165Z,22.55
2022-12-25T20:13:18.377Z,24.88
2022-12-25T20:15:46.139Z,23.90
2022-12-25T20:18:13.886Z,25.35
2022-12-25T20:20:42.309Z,23.08
2022-12-25T20:23:10.121Z,26.97
2022-12-25T20:25:41.908Z,22.35
2022-12-25T20:28:09.883Z,22.05
2022-12-25T20:30:41.469Z,18.67
2022-12-25T20:33:10.229Z,21.92
2022-12-25T20:35:45.324Z,21.73
2022-12-25T20:38:13.045Z,18.60
2022-12-25T20:41:08.084Z,17.07
2022-12-25T20:43:32.208Z,20.17
2022-12-25T20:46:00.565Z,16.55
2022-12-25T20:48:29.320Z,16.93
2022-12-25T20:51:07.201Z,15.20
2022-12-25T20:53:35.087Z,18.98
2022-12-25T20:56:05.125Z,20.43
2022-12-25T20:58:36.189Z,21.27
2022-12-25T21:01:07.528Z,23.02
2022-12-25T21:03:35.618Z,17.75
2022-12-25T21:06:03.443Z,24.03
2022-12-25T21:08:31.296Z,19.70
2022-12-25T21:11:01.017Z,21.02
2022-12-25T21:13:32.653Z,17.07
2022-12-25T21:16:01.522Z,20.75
2022-12-25T21:18:29.470Z,21.88
2022-12-25T21:20:58.009Z,23.33
2022-12-25T21:23:29.215Z,18.60
2022-12-25T21:25:57.018Z,25.15
2022-12-25T21:28:27.208Z,25.40
2022-12-25T21:30:55.064Z,22.87
2022-12-25T21:33:41.461Z,22.50
2022-12-25T21:36:09.732Z,28.08
2022-12-25T21:38:37.573Z,29.67
2022-12-25T21:41:06.170Z,28.63
2022-12-25T21:43:34.442Z,27.55
2022-12-25T21:46:05.705Z,53.13
2022-12-25T21:48:33.649Z,38.83
2022-12-25T21:51:23.876Z,45.40
2022-12-25T21:53:51.710Z,34.65
2022-12-25T21:56:19.658Z,40.77
2022-12-25T21:58:47.466Z,45.20
2022-12-25T22:01:18.472Z,46.03
2022-12-25T22:03:46.425Z,51.00
2022-12-25T22:06:32.847Z,26.65
2022-12-25T22:09:00.638Z,37.33
2022-12-25T22:11:47.066Z,25.00
2022-12-25T22:14:52.443Z,31.17
2022-12-25T22:17:41.427Z,30.73
2022-12-25T22:20:10.187Z,27.73
2022-12-25T22:22:38.364Z,26.77
2022-12-25T22:25:06.462Z,40.47
2022-12-25T22:27:34.655Z,40.40
2022-12-25T22:30:02.460Z,30.50
2022-12-25T22:32:30.853Z,50.00
2022-12-25T22:34:58.695Z,34.10
2022-12-25T22:37:26.360Z,24.10
2022-12-25T22:39:54.143Z,30.60
2022-12-25T22:42:21.904Z,26.50
2022-12-25T22:44:49.647Z,45.75
2022-12-25T22:47:17.361Z,32.77
2022-12-25T22:49:45.183Z,36.33
2022-12-25T22:52:12.867Z,30.65
2022-12-25T22:54:40.698Z,33.23
2022-12-25T22:57:08.419Z,30.58
2022-12-25T22:59:36.227Z,27.27
2022-12-25T23:02:03.958Z,24.77
2022-12-25T23:04:31.861Z,26.35
2022-12-25T23:06:59.663Z,27.52
2022-12-25T23:09:28.068Z,24.50
2022-12-25T23:11:56.671Z,24.87
2022-12-25T23:14:40.083Z,21.90
2022-12-25T23:17:28.814Z,23.25
2022-12-25T23:20:15.823Z,23.30
2022-12-25T23:23:02.376Z,25.35
2022-12-25T23:25:48.809Z,25.90
2022-12-25T23:28:36.427Z,27.07
2022-12-25T23:31:04.265Z,25.52
2022-12-25T23:33:32.003Z,21.38
2022-12-25T23:35:59.787Z,22.23
2022-12-25T23:38:27.493Z,29.70
2022-12-25T23:40:55.299Z,19.75
2022-12-25T23:43:23.109Z,33.17
2022-12-25T23:45:50.816Z,29.60
2022-12-25T23:48:18.583Z,30.20
2022-12-25T23:50:46.255Z,24.60
2022-12-25T23:53:14.042Z,22.27
2022-12-25T23:55:42.838Z,17.80
2022-12-25T23:58:10.647Z,24.77
